Lanesville, Illinois
Current Conditions -  °F | °C
As of 5:52 AM on Sunday 23 Nov 2014 (Local Time) from KSPI Reporting Station
Overcast Overcast  
Wind Chill: 54°   Ceiling: 10000
Heat Index: 54°   Visibility: 10mi
Dew Point: 45°   Wind: 18mph
Humidity: 72%   Direction: 180°S
Pressure: 29.75"   Gusts: 28mph
Location:  39.8448°N, 89.3474°W
Report Text: KSPI 231152Z 18016G24KT 10SM OVC100 12/07 A2975 RMK AO2 SLP074 T01220072 10122 20106 55011
Loading
Personal Weather Stations






























Interactive Weather Map New forecast layout! Learn more

10-Day Weather Forecast

Advertisements
Track Severe Weather on mobile